Monday, November 20, 2017, 4:34 AM EST
Back to Local

KAKR, Akron Fulton International

Location: Akron, OH, United States Lat: 41.033
Local Time: 4:34 AM EST ( 9:34 GMT) Lon: -81.467
Time Zone: US/Eastern Elev: 1069 ft

Show me the last for .
Show Decoded

2017-11-20 03:54 METAR KAKR 200854Z AUTO 23007KT 10SM FEW036 M01/M05 A3007 RMK AO2 SLP193
                 T10111050 53009 =
2017-11-20 02:54 METAR KAKR 200754Z AUTO 25010KT 10SM FEW022 BKN037 M01/M05 A3007 RMK AO2 SLP190
                 T10061050 =
2017-11-20 02:46 METAR KAKR 200746Z AUTO 25011KT 10SM SCT022 BKN030 BKN038 M01/M05 A3006 RMK AO2
                 T10061050 =
2017-11-20 02:36 METAR KAKR 200736Z AUTO 26014G21KT 10SM BKN024 BKN030 BKN036 00/M05 A3006 RMK
                 AO2 T00001050 =
2017-11-20 01:54 METAR KAKR 200654Z AUTO 24008KT 10SM OVC035 00/M05 A3005 RMK AO2 SLP183
                 T00001050 =
2017-11-20 00:54 METAR KAKR 200554Z AUTO 25007KT 10SM OVC043 M01/M06 A3004 RMK AO2 SLP182
                 T10061061 10017 21011 51018 =
2017-11-19 23:54 METAR KAKR 200454Z AUTO 27009KT 10SM SCT047 M01/M07 A3004 RMK AO2 SLP179
                 T10061072 400561006 =
2017-11-19 22:54 METAR KAKR 200354Z AUTO 27017G25KT 10SM OVC049 00/M07 A3002 RMK AO2 SLP173
                 T00001067 =
2017-11-19 21:54 METAR KAKR 200254Z AUTO 27015G25KT 10SM OVC046 01/M06 A2999 RMK AO2 SLP162
                 T00061061 53016 =
2017-11-19 20:54 METAR KAKR 200154Z AUTO 27014G19KT 10SM OVC048 01/M05 A2997 RMK AO2 SLP157
                 T00111050 =
2017-11-19 19:54 METAR KAKR 200054Z AUTO 27015G23KT 10SM OVC050 01/M05 A2995 RMK AO2 SLP151
                 T00111050 =
2017-11-19 18:54 METAR KAKR 192354Z AUTO 28017G21KT 10SM OVC060 02/M06 A2994 RMK AO2 SLP146 60000
                 T00171056 10050 20017 53025 =
2017-11-19 17:54 METAR KAKR 192254Z AUTO 28013KT 10SM OVC065 02/M04 A2991 RMK AO2 SLP135
                 T00171044 =
2017-11-19 16:54 METAR KAKR 192154Z AUTO 29013G21KT 10SM FEW032 OVC055 02/M03 A2989 RMK AO2
                 SNE00B20E37 SLP128 P0000 T00221028 =
2017-11-19 16:38 METAR KAKR 192138Z AUTO 28014G20KT 9SM SCT039 OVC060 02/M02 A2988 RMK AO2
                 SNE00B20E37 P0000 T00221022 =
2017-11-19 16:31 METAR KAKR 192131Z AUTO 28013G22KT 2 1/2SM -SN BKN033 OVC060 02/M02 A2988 RMK
                 AO2 VIS 1V5 SNE00B20 P0000 T00221022 =
2017-11-19 15:54 METAR KAKR 192054Z AUTO 32011G22KT 4SM -SN FEW020 BKN049 OVC060 02/M02 A2986 RMK
                 AO2 SNE16B48 SLP119 P0000 60000 T00171017 53015 =
2017-11-19 15:11 METAR KAKR 192011Z AUTO 27010KT 8SM -SN FEW025 BKN030 OVC055 03/M02 A2985 RMK
                 AO2 P0000 T00281017 =
2017-11-19 15:02 METAR KAKR 192002Z AUTO 27010G18KT 7SM -SN BKN028 OVC035 03/M02 A2984 RMK AO2
                 P0000 T00281017 =
2017-11-19 14:54 METAR KAKR 191954Z AUTO 28010KT 6SM -SN FEW024 BKN032 OVC040 03/M02 A2984 RMK
                 AO2 RAB1859E07SNB33 SLP111 P0000 T00281022 =
2017-11-19 13:54 METAR KAKR 191854Z AUTO 30011G18KT 10SM OVC036 04/M03 A2983 RMK AO2 SLP108
                 T00391033 =
2017-11-19 12:54 METAR KAKR 191754Z AUTO 30008KT 10SM SCT035 BKN043 OVC060 04/M02 A2982 RMK AO2
                 SLP104 60000 T00441022 10056 20028 50004 =
2017-11-19 11:54 METAR KAKR 191654Z AUTO 28012G22KT 10SM SCT038 BKN046 OVC060 04/M03 A2982 RMK
                 AO2 SLP106 T00441028 =
2017-11-19 10:54 METAR KAKR 191554Z AUTO 29014G19KT 10SM SCT055 05/M02 A2982 RMK AO2 SLP103
                 T00501022 =
2017-11-19 10:35 METAR KAKR 191535Z AUTO 30014KT 10SM SCT027 BKN036 OVC055 04/M02 A2983 RMK AO2
                 T00391022 =
2017-11-19 10:16 METAR KAKR 191516Z AUTO 29011KT 10SM OVC029 03/M02 A2982 RMK AO2 T00331022 =
2017-11-19 09:54 METAR KAKR 191454Z AUTO 29010KT 10SM OVC031 03/M02 A2981 RMK AO2 SLP098 60000
                 T00331022 51025 =
2017-11-19 08:54 METAR KAKR 191354Z AUTO 29013G22KT 10SM FEW027 BKN032 OVC042 03/M02 A2979 RMK
                 AO2 RAB11E21 SLP088 P0000 T00331017 =
2017-11-19 08:28 METAR KAKR 191328Z AUTO 28012G19KT 10SM FEW029 BKN034 OVC044 03/M01 A2977 RMK
                 AO2 RAB11E21 P0000 T00331006 =
2017-11-19 08:11 METAR KAKR 191311Z AUTO 29009KT 10SM -RA BKN029 OVC035 03/M01 A2977 RMK AO2
                 RAB11 P0000 T00331006 =
2017-11-19 07:54 METAR KAKR 191254Z AUTO 28008KT 10SM OVC035 03/M01 A2976 RMK AO2 RAE1158 SLP080
                 P0000 T00331006 =
2017-11-19 07:07 METAR KAKR 191207Z AUTO 30011KT 10SM FEW014 SCT019 OVC037 03/00 A2974 RMK AO2
                 RAE1158 P0000 T00280000 =
2017-11-19 06:54 METAR KAKR 191154Z AUTO 29012G18KT 10SM -RA BKN015 BKN021 OVC035 03/00 A2973 RMK
                 AO2 RAB47 SLP070 P0000 60000 70091 T00280000 10044 20028 53021 =
2017-11-19 06:32 METAR KAKR 191132Z AUTO 30012G22KT 10SM SCT019 BKN028 OVC032 04/M01 A2972 RMK
                 AO2 T00391011 =
2017-11-19 05:54 METAR KAKR 191054Z AUTO 31012KT 10SM OVC033 04/M02 A2970 RMK AO2 SLP058
                 T00391017 =
2017-11-19 05:50 METAR KAKR 191050Z AUTO 32011G23KT 10SM OVC033 04/M02 A2970 RMK AO2 =
2017-11-19 04:54 METAR KAKR 190954Z AUTO 31011G20KT 10SM OVC027 04/M01 A2967 RMK AO2 SLP049
                 T00441006 =

Support USWX by starting your Amazon purchase here.